Pagrindinis puslapis
METAR-TAF:

METAR-TAF

Oro uostai :

Ordu, Turkija

platuma: 40-58-00N, ilguma: 38-04-48E, Aukštis: 5 m

METAR: trūkstamas

Laikas: 02:23 (23:23 UTC)

Prognozė

Ataskaita buvo paskelbta 3 valandos ir 43 minutes, ne 19:40 UTC
Prognozė galioja nuo 05 metu 21 UTC su 06 metu 06 UTC
Vėjas 2 kt nuo kintamojo kryptimis
Matomumas: 8000 m
Su prošvaistėmis ne aukštis 800 ft
Su prošvaistėmis ne aukštis 2500 ft
Laikinai
nuo 05 metu 21 UTC su 06 metu 01 UTC
Matomumas: 3500 m
Su prošvaistėmis ne aukštis 400 ft
Su prošvaistėmis ne aukštis 2500 ft
lietus, rūkana
Tikimybė 40%
nuo 06 metu 01 UTC su 06 metu 05 UTC
Matomumas: 2500 m
Su prošvaistėmis ne aukštis 200 ft
Su prošvaistėmis ne aukštis 2500 ft
lietus, rūkana

TAF: LTCB 051940Z 0521/0606 VRB02KT 8000 BKN008 BKN025 TEMPO 0521/0601 3500 -SHRA BR BKN004 BKN025 PROB40 0601/0605 2500 -SHRA BR BKN002 BKN025

Orai ataskaitas ir orų prognozės (METAR, TAF).

turimą stotys yra geltonos ir raudonos taškus žemėlapyje.

Perkelti pele per norėdami pamatyti stoties vardą.

Tada spustelėkite, norėdami matyti oro stebėjimo ir prognozės.

Norėdami pakeisti žemėlapį: spustelėkite ant žalios mygtukų su juodo kryžiaus žemyn,; žalią mygtuką su brūkšneliu, jei norite nutolinti; arba žalių rodyklių gretimoms žemėlapius.


METAR-TAF: